sensor_id;sensor_type;location;lat;lon;timestamp;P1;durP1;ratioP1;P2;durP2;ratioP2
25127;SDS011;13107;51.304;6.866;2023-04-28T00:00:47;12.05;;;6.10;;
25127;SDS011;13107;51.304;6.866;2023-04-28T00:04:48;8.25;;;6.47;;
25127;SDS011;13107;51.304;6.866;2023-04-28T00:08:50;7.32;;;5.72;;
25127;SDS011;13107;51.304;6.866;2023-04-28T00:12:52;9.45;;;5.95;;
25127;SDS011;13107;51.304;6.866;2023-04-28T00:16:54;9.95;;;5.85;;
25127;SDS011;13107;51.304;6.866;2023-04-28T00:20:57;7.35;;;6.47;;
25127;SDS011;13107;51.304;6.866;2023-04-28T00:25:00;8.73;;;6.50;;
25127;SDS011;13107;51.304;6.866;2023-04-28T00:29:01;13.52;;;7.37;;
25127;SDS011;13107;51.304;6.866;2023-04-28T00:33:03;10.68;;;7.47;;
25127;SDS011;13107;51.304;6.866;2023-04-28T00:37:06;9.40;;;6.75;;
25127;SDS011;13107;51.304;6.866;2023-04-28T00:41:10;12.93;;;7.60;;
25127;SDS011;13107;51.304;6.866;2023-04-28T00:45:12;9.95;;;7.05;;
25127;SDS011;13107;51.304;6.866;2023-04-28T00:49:14;10.45;;;6.90;;
25127;SDS011;13107;51.304;6.866;2023-04-28T00:53:16;11.77;;;7.28;;
25127;SDS011;13107;51.304;6.866;2023-04-28T00:57:18;11.93;;;7.45;;
25127;SDS011;13107;51.304;6.866;2023-04-28T01:01:20;13.52;;;7.78;;
25127;SDS011;13107;51.304;6.866;2023-04-28T01:05:23;15.05;;;8.10;;
25127;SDS011;13107;51.304;6.866;2023-04-28T01:09:26;12.35;;;7.57;;
25127;SDS011;13107;51.304;6.866;2023-04-28T01:13:27;13.62;;;7.55;;
25127;SDS011;13107;51.304;6.866;2023-04-28T01:17:29;12.02;;;7.75;;
25127;SDS011;13107;51.304;6.866;2023-04-28T01:21:31;10.77;;;7.62;;
25127;SDS011;13107;51.304;6.866;2023-04-28T01:25:34;10.75;;;7.78;;
25127;SDS011;13107;51.304;6.866;2023-04-28T01:29:36;11.38;;;8.25;;
25127;SDS011;13107;51.304;6.866;2023-04-28T01:33:37;11.85;;;8.00;;
25127;SDS011;13107;51.304;6.866;2023-04-28T01:37:39;15.65;;;8.60;;
25127;SDS011;13107;51.304;6.866;2023-04-28T01:41:41;13.95;;;8.40;;
25127;SDS011;13107;51.304;6.866;2023-04-28T01:45:43;13.07;;;8.75;;
25127;SDS011;13107;51.304;6.866;2023-04-28T01:49:45;16.12;;;9.70;;
25127;SDS011;13107;51.304;6.866;2023-04-28T01:53:48;14.77;;;8.98;;
25127;SDS011;13107;51.304;6.866;2023-04-28T01:57:50;14.27;;;9.50;;
25127;SDS011;13107;51.304;6.866;2023-04-28T02:01:51;14.13;;;9.35;;
25127;SDS011;13107;51.304;6.866;2023-04-28T02:05:53;11.80;;;8.90;;
25127;SDS011;13107;51.304;6.866;2023-04-28T02:09:55;12.43;;;9.60;;
25127;SDS011;13107;51.304;6.866;2023-04-28T02:13:57;12.32;;;8.60;;
25127;SDS011;13107;51.304;6.866;2023-04-28T02:17:59;12.23;;;9.23;;
25127;SDS011;13107;51.304;6.866;2023-04-28T02:22:00;13.82;;;8.98;;
25127;SDS011;13107;51.304;6.866;2023-04-28T02:26:02;11.80;;;8.75;;
25127;SDS011;13107;51.304;6.866;2023-04-28T02:30:04;12.15;;;8.30;;
25127;SDS011;13107;51.304;6.866;2023-04-28T02:34:06;12.65;;;8.02;;
25127;SDS011;13107;51.304;6.866;2023-04-28T02:38:08;14.45;;;7.82;;
25127;SDS011;13107;51.304;6.866;2023-04-28T02:42:10;12.93;;;7.93;;
25127;SDS011;13107;51.304;6.866;2023-04-28T02:46:11;11.57;;;7.75;;
25127;SDS011;13107;51.304;6.866;2023-04-28T02:50:13;12.30;;;7.50;;
25127;SDS011;13107;51.304;6.866;2023-04-28T02:54:15;9.95;;;7.43;;
25127;SDS011;13107;51.304;6.866;2023-04-28T02:58:17;10.10;;;7.55;;
25127;SDS011;13107;51.304;6.866;2023-04-28T03:02:19;11.98;;;7.85;;
25127;SDS011;13107;51.304;6.866;2023-04-28T03:06:23;13.48;;;8.32;;
25127;SDS011;13107;51.304;6.866;2023-04-28T03:10:25;9.27;;;6.97;;
25127;SDS011;13107;51.304;6.866;2023-04-28T03:14:26;9.85;;;7.35;;
25127;SDS011;13107;51.304;6.866;2023-04-28T03:18:28;10.68;;;7.37;;
25127;SDS011;13107;51.304;6.866;2023-04-28T03:22:30;13.18;;;8.60;;
25127;SDS011;13107;51.304;6.866;2023-04-28T03:26:32;9.43;;;7.97;;
25127;SDS011;13107;51.304;6.866;2023-04-28T03:30:33;15.85;;;8.43;;
25127;SDS011;13107;51.304;6.866;2023-04-28T03:34:35;11.60;;;7.78;;
25127;SDS011;13107;51.304;6.866;2023-04-28T03:38:37;12.95;;;7.90;;
25127;SDS011;13107;51.304;6.866;2023-04-28T03:42:39;10.02;;;7.65;;
25127;SDS011;13107;51.304;6.866;2023-04-28T03:46:40;12.70;;;7.85;;
25127;SDS011;13107;51.304;6.866;2023-04-28T03:50:42;13.62;;;8.15;;
25127;SDS011;13107;51.304;6.866;2023-04-28T03:54:45;15.35;;;8.00;;
25127;SDS011;13107;51.304;6.866;2023-04-28T03:58:47;12.57;;;7.75;;
25127;SDS011;13107;51.304;6.866;2023-04-28T04:02:49;11.45;;;7.72;;
25127;SDS011;13107;51.304;6.866;2023-04-28T04:06:52;13.73;;;9.07;;
25127;SDS011;13107;51.304;6.866;2023-04-28T04:10:53;14.38;;;9.32;;
25127;SDS011;13107;51.304;6.866;2023-04-28T04:14:56;11.05;;;8.13;;
25127;SDS011;13107;51.304;6.866;2023-04-28T04:18:57;16.70;;;9.57;;
25127;SDS011;13107;51.304;6.866;2023-04-28T04:22:59;12.18;;;8.77;;
25127;SDS011;13107;51.304;6.866;2023-04-28T04:27:02;12.60;;;8.00;;
25127;SDS011;13107;51.304;6.866;2023-04-28T04:31:03;16.37;;;8.00;;
25127;SDS011;13107;51.304;6.866;2023-04-28T04:35:05;9.98;;;8.20;;
25127;SDS011;13107;51.304;6.866;2023-04-28T04:39:07;11.35;;;8.15;;
25127;SDS011;13107;51.304;6.866;2023-04-28T04:43:09;12.13;;;7.87;;
25127;SDS011;13107;51.304;6.866;2023-04-28T04:47:11;14.25;;;8.82;;
25127;SDS011;13107;51.304;6.866;2023-04-28T04:51:13;11.27;;;8.48;;
25127;SDS011;13107;51.304;6.866;2023-04-28T04:55:14;12.63;;;8.60;;
25127;SDS011;13107;51.304;6.866;2023-04-28T04:59:16;12.80;;;8.18;;
25127;SDS011;13107;51.304;6.866;2023-04-28T05:03:19;12.50;;;8.90;;
25127;SDS011;13107;51.304;6.866;2023-04-28T05:07:21;10.88;;;7.80;;
25127;SDS011;13107;51.304;6.866;2023-04-28T05:11:22;11.30;;;7.50;;
25127;SDS011;13107;51.304;6.866;2023-04-28T05:15:24;12.05;;;7.70;;
25127;SDS011;13107;51.304;6.866;2023-04-28T05:19:26;10.98;;;6.93;;
25127;SDS011;13107;51.304;6.866;2023-04-28T05:23:28;10.68;;;7.30;;
25127;SDS011;13107;51.304;6.866;2023-04-28T05:27:29;11.88;;;8.02;;
25127;SDS011;13107;51.304;6.866;2023-04-28T05:31:32;7.62;;;6.12;;
25127;SDS011;13107;51.304;6.866;2023-04-28T05:35:33;8.13;;;6.37;;
25127;SDS011;13107;51.304;6.866;2023-04-28T05:39:36;11.43;;;7.28;;
25127;SDS011;13107;51.304;6.866;2023-04-28T05:43:37;11.15;;;7.20;;
25127;SDS011;13107;51.304;6.866;2023-04-28T05:47:39;9.95;;;7.20;;
25127;SDS011;13107;51.304;6.866;2023-04-28T05:51:41;9.65;;;7.22;;
25127;SDS011;13107;51.304;6.866;2023-04-28T05:55:43;13.65;;;6.87;;
25127;SDS011;13107;51.304;6.866;2023-04-28T05:59:44;11.15;;;6.80;;
25127;SDS011;13107;51.304;6.866;2023-04-28T06:03:46;9.48;;;6.45;;
25127;SDS011;13107;51.304;6.866;2023-04-28T06:07:48;9.63;;;5.93;;
25127;SDS011;13107;51.304;6.866;2023-04-28T06:11:50;9.93;;;6.00;;
25127;SDS011;13107;51.304;6.866;2023-04-28T06:15:52;8.85;;;5.82;;
25127;SDS011;13107;51.304;6.866;2023-04-28T06:19:53;8.00;;;5.03;;
25127;SDS011;13107;51.304;6.866;2023-04-28T06:23:55;8.02;;;5.80;;
25127;SDS011;13107;51.304;6.866;2023-04-28T06:27:57;7.93;;;5.22;;
25127;SDS011;13107;51.304;6.866;2023-04-28T06:31:59;7.30;;;5.45;;
25127;SDS011;13107;51.304;6.866;2023-04-28T06:36:00;9.50;;;5.45;;
25127;SDS011;13107;51.304;6.866;2023-04-28T06:40:02;7.78;;;4.87;;
25127;SDS011;13107;51.304;6.866;2023-04-28T06:44:04;9.30;;;5.32;;
25127;SDS011;13107;51.304;6.866;2023-04-28T06:48:06;12.57;;;5.37;;
25127;SDS011;13107;51.304;6.866;2023-04-28T06:52:08;9.45;;;5.43;;
25127;SDS011;13107;51.304;6.866;2023-04-28T06:56:10;7.20;;;5.28;;
25127;SDS011;13107;51.304;6.866;2023-04-28T07:00:12;6.55;;;4.80;;
25127;SDS011;13107;51.304;6.866;2023-04-28T07:04:14;6.97;;;5.35;;
25127;SDS011;13107;51.304;6.866;2023-04-28T07:08:17;9.35;;;4.78;;
25127;SDS011;13107;51.304;6.866;2023-04-28T07:12:19;8.20;;;4.18;;
25127;SDS011;13107;51.304;6.866;2023-04-28T07:16:21;8.60;;;4.93;;
25127;SDS011;13107;51.304;6.866;2023-04-28T07:20:23;8.40;;;4.85;;
25127;SDS011;13107;51.304;6.866;2023-04-28T07:24:25;7.05;;;5.22;;
25127;SDS011;13107;51.304;6.866;2023-04-28T07:28:27;7.90;;;4.70;;
25127;SDS011;13107;51.304;6.866;2023-04-28T07:32:29;7.80;;;4.72;;
25127;SDS011;13107;51.304;6.866;2023-04-28T07:36:31;9.10;;;5.82;;
25127;SDS011;13107;51.304;6.866;2023-04-28T07:40:32;6.35;;;5.20;;
25127;SDS011;13107;51.304;6.866;2023-04-28T07:44:34;9.02;;;5.25;;
25127;SDS011;13107;51.304;6.866;2023-04-28T07:48:36;6.78;;;5.62;;
25127;SDS011;13107;51.304;6.866;2023-04-28T07:52:38;9.45;;;5.93;;
25127;SDS011;13107;51.304;6.866;2023-04-28T07:56:39;8.57;;;5.40;;
25127;SDS011;13107;51.304;6.866;2023-04-28T08:00:41;8.48;;;5.43;;
25127;SDS011;13107;51.304;6.866;2023-04-28T08:04:43;8.15;;;5.43;;
25127;SDS011;13107;51.304;6.866;2023-04-28T08:08:45;8.50;;;5.43;;
25127;SDS011;13107;51.304;6.866;2023-04-28T08:12:47;7.95;;;5.70;;
25127;SDS011;13107;51.304;6.866;2023-04-28T08:16:48;8.52;;;5.85;;
25127;SDS011;13107;51.304;6.866;2023-04-28T08:20:50;8.02;;;5.80;;
25127;SDS011;13107;51.304;6.866;2023-04-28T08:24:52;8.55;;;6.53;;
25127;SDS011;13107;51.304;6.866;2023-04-28T08:28:54;10.52;;;6.28;;
25127;SDS011;13107;51.304;6.866;2023-04-28T08:32:55;11.20;;;6.80;;
25127;SDS011;13107;51.304;6.866;2023-04-28T08:36:57;11.23;;;6.70;;
25127;SDS011;13107;51.304;6.866;2023-04-28T08:40:59;11.15;;;5.87;;
25127;SDS011;13107;51.304;6.866;2023-04-28T08:45:03;9.43;;;6.28;;
25127;SDS011;13107;51.304;6.866;2023-04-28T08:49:05;9.18;;;6.28;;
25127;SDS011;13107;51.304;6.866;2023-04-28T08:53:12;9.77;;;6.95;;
25127;SDS011;13107;51.304;6.866;2023-04-28T08:57:16;11.60;;;6.30;;
25127;SDS011;13107;51.304;6.866;2023-04-28T09:01:20;12.15;;;6.18;;
25127;SDS011;13107;51.304;6.866;2023-04-28T09:05:23;9.93;;;6.25;;
25127;SDS011;13107;51.304;6.866;2023-04-28T09:09:27;8.77;;;6.57;;
25127;SDS011;13107;51.304;6.866;2023-04-28T09:13:35;9.57;;;6.72;;
25127;SDS011;13107;51.304;6.866;2023-04-28T09:17:47;12.48;;;7.15;;
25127;SDS011;13107;51.304;6.866;2023-04-28T09:21:56;11.50;;;7.22;;
25127;SDS011;13107;51.304;6.866;2023-04-28T09:30:05;11.85;;;7.50;;
25127;SDS011;13107;51.304;6.866;2023-04-28T09:34:07;11.10;;;7.18;;
25127;SDS011;13107;51.304;6.866;2023-04-28T09:38:10;10.07;;;7.50;;
25127;SDS011;13107;51.304;6.866;2023-04-28T09:42:29;13.10;;;7.72;;
25127;SDS011;13107;51.304;6.866;2023-04-28T09:46:42;11.05;;;7.75;;
25127;SDS011;13107;51.304;6.866;2023-04-28T09:50:44;13.05;;;7.62;;
25127;SDS011;13107;51.304;6.866;2023-04-28T09:54:47;10.57;;;8.57;;
25127;SDS011;13107;51.304;6.866;2023-04-28T09:58:50;13.55;;;8.85;;
25127;SDS011;13107;51.304;6.866;2023-04-28T10:02:53;13.25;;;8.35;;
25127;SDS011;13107;51.304;6.866;2023-04-28T10:06:56;11.30;;;8.20;;
25127;SDS011;13107;51.304;6.866;2023-04-28T10:10:58;13.82;;;9.07;;
25127;SDS011;13107;51.304;6.866;2023-04-28T10:15:00;13.20;;;9.15;;
25127;SDS011;13107;51.304;6.866;2023-04-28T10:19:02;11.70;;;8.60;;
25127;SDS011;13107;51.304;6.866;2023-04-28T10:27:49;12.85;;;9.40;;
25127;SDS011;13107;51.304;6.866;2023-04-28T10:40:48;15.57;;;10.68;;
25127;SDS011;13107;51.304;6.866;2023-04-28T10:44:50;15.43;;;10.90;;
25127;SDS011;13107;51.304;6.866;2023-04-28T10:48:52;12.48;;;11.05;;
25127;SDS011;13107;51.304;6.866;2023-04-28T10:52:55;15.55;;;11.18;;
25127;SDS011;13107;51.304;6.866;2023-04-28T10:57:16;14.77;;;12.13;;
25127;SDS011;13107;51.304;6.866;2023-04-28T11:05:27;15.18;;;12.35;;
25127;SDS011;13107;51.304;6.866;2023-04-28T11:13:32;17.33;;;12.35;;
25127;SDS011;13107;51.304;6.866;2023-04-28T11:17:40;19.25;;;14.30;;
25127;SDS011;13107;51.304;6.866;2023-04-28T11:21:42;16.15;;;14.00;;
25127;SDS011;13107;51.304;6.866;2023-04-28T11:25:57;16.45;;;14.73;;
25127;SDS011;13107;51.304;6.866;2023-04-28T11:29:59;16.02;;;14.43;;
25127;SDS011;13107;51.304;6.866;2023-04-28T11:38:05;17.12;;;15.32;;
25127;SDS011;13107;51.304;6.866;2023-04-28T11:42:09;17.90;;;15.95;;
25127;SDS011;13107;51.304;6.866;2023-04-28T11:46:17;17.23;;;15.35;;
25127;SDS011;13107;51.304;6.866;2023-04-28T11:50:34;18.27;;;16.42;;
25127;SDS011;13107;51.304;6.866;2023-04-28T11:54:37;19.35;;;16.12;;
25127;SDS011;13107;51.304;6.866;2023-04-28T11:58:39;17.58;;;15.77;;
25127;SDS011;13107;51.304;6.866;2023-04-28T12:02:40;18.45;;;16.55;;
25127;SDS011;13107;51.304;6.866;2023-04-28T12:06:42;15.85;;;14.30;;
25127;SDS011;13107;51.304;6.866;2023-04-28T12:11:05;13.13;;;11.82;;
25127;SDS011;13107;51.304;6.866;2023-04-28T12:15:20;12.60;;;11.38;;
25127;SDS011;13107;51.304;6.866;2023-04-28T12:19:23;12.52;;;11.18;;
25127;SDS011;13107;51.304;6.866;2023-04-28T12:23:29;10.45;;;9.55;;
25127;SDS011;13107;51.304;6.866;2023-04-28T12:27:35;10.90;;;9.90;;
25127;SDS011;13107;51.304;6.866;2023-04-28T12:31:49;11.00;;;9.90;;
25127;SDS011;13107;51.304;6.866;2023-04-28T12:35:53;11.48;;;10.13;;
25127;SDS011;13107;51.304;6.866;2023-04-28T12:39:57;9.70;;;8.85;;
25127;SDS011;13107;51.304;6.866;2023-04-28T12:43:58;8.52;;;7.72;;
25127;SDS011;13107;51.304;6.866;2023-04-28T12:48:00;10.95;;;8.05;;
25127;SDS011;13107;51.304;6.866;2023-04-28T12:52:04;9.63;;;7.55;;
25127;SDS011;13107;51.304;6.866;2023-04-28T12:56:07;9.38;;;6.80;;
25127;SDS011;13107;51.304;6.866;2023-04-28T13:00:09;7.70;;;6.93;;
25127;SDS011;13107;51.304;6.866;2023-04-28T13:04:11;9.65;;;7.93;;
25127;SDS011;13107;51.304;6.866;2023-04-28T13:08:13;7.72;;;6.90;;
25127;SDS011;13107;51.304;6.866;2023-04-28T13:12:15;8.15;;;6.45;;
25127;SDS011;13107;51.304;6.866;2023-04-28T13:16:16;6.97;;;6.30;;
25127;SDS011;13107;51.304;6.866;2023-04-28T13:20:18;6.72;;;5.28;;
25127;SDS011;13107;51.304;6.866;2023-04-28T13:24:20;6.55;;;5.00;;
25127;SDS011;13107;51.304;6.866;2023-04-28T13:28:22;5.40;;;4.90;;
25127;SDS011;13107;51.304;6.866;2023-04-28T13:32:24;5.62;;;5.05;;
25127;SDS011;13107;51.304;6.866;2023-04-28T13:36:26;5.30;;;4.20;;
25127;SDS011;13107;51.304;6.866;2023-04-28T13:40:30;6.60;;;4.57;;
25127;SDS011;13107;51.304;6.866;2023-04-28T13:44:33;5.22;;;4.72;;
25127;SDS011;13107;51.304;6.866;2023-04-28T13:48:35;4.95;;;4.45;;
25127;SDS011;13107;51.304;6.866;2023-04-28T13:52:37;5.45;;;4.90;;
25127;SDS011;13107;51.304;6.866;2023-04-28T13:56:39;4.82;;;4.32;;
25127;SDS011;13107;51.304;6.866;2023-04-28T14:00:41;4.85;;;4.32;;
25127;SDS011;13107;51.304;6.866;2023-04-28T14:04:43;6.22;;;4.15;;
25127;SDS011;13107;51.304;6.866;2023-04-28T14:08:49;4.90;;;4.22;;
25127;SDS011;13107;51.304;6.866;2023-04-28T14:12:51;4.05;;;3.65;;
25127;SDS011;13107;51.304;6.866;2023-04-28T14:16:52;5.03;;;3.45;;
25127;SDS011;13107;51.304;6.866;2023-04-28T14:20:54;3.95;;;3.15;;
25127;SDS011;13107;51.304;6.866;2023-04-28T14:24:56;3.10;;;2.75;;
25127;SDS011;13107;51.304;6.866;2023-04-28T14:28:58;3.15;;;2.28;;
25127;SDS011;13107;51.304;6.866;2023-04-28T14:33:00;2.65;;;2.42;;
25127;SDS011;13107;51.304;6.866;2023-04-28T14:37:02;2.17;;;1.90;;
25127;SDS011;13107;51.304;6.866;2023-04-28T14:41:04;1.70;;;1.40;;
25127;SDS011;13107;51.304;6.866;2023-04-28T14:45:07;1.83;;;1.17;;
25127;SDS011;13107;51.304;6.866;2023-04-28T14:49:10;2.33;;;1.00;;
25127;SDS011;13107;51.304;6.866;2023-04-28T14:53:12;1.67;;;0.90;;
25127;SDS011;13107;51.304;6.866;2023-04-28T14:57:13;1.90;;;1.12;;
25127;SDS011;13107;51.304;6.866;2023-04-28T15:01:15;1.25;;;0.70;;
25127;SDS011;13107;51.304;6.866;2023-04-28T15:05:18;1.17;;;0.93;;
25127;SDS011;13107;51.304;6.866;2023-04-28T15:09:20;2.15;;;1.60;;
25127;SDS011;13107;51.304;6.866;2023-04-28T15:13:22;3.50;;;1.30;;
25127;SDS011;13107;51.304;6.866;2023-04-28T15:17:25;1.90;;;1.35;;
25127;SDS011;13107;51.304;6.866;2023-04-28T15:21:28;2.53;;;1.50;;
25127;SDS011;13107;51.304;6.866;2023-04-28T15:25:31;2.90;;;1.30;;
25127;SDS011;13107;51.304;6.866;2023-04-28T15:29:32;2.35;;;2.15;;
25127;SDS011;13107;51.304;6.866;2023-04-28T15:33:34;2.92;;;2.60;;
25127;SDS011;13107;51.304;6.866;2023-04-28T15:41:37;5.10;;;4.60;;
25127;SDS011;13107;51.304;6.866;2023-04-28T15:45:39;7.25;;;5.82;;
25127;SDS011;13107;51.304;6.866;2023-04-28T15:49:41;8.35;;;6.53;;
25127;SDS011;13107;51.304;6.866;2023-04-28T15:53:43;5.05;;;4.62;;
25127;SDS011;13107;51.304;6.866;2023-04-28T15:57:45;3.87;;;3.47;;
25127;SDS011;13107;51.304;6.866;2023-04-28T16:01:47;2.80;;;2.60;;
25127;SDS011;13107;51.304;6.866;2023-04-28T16:05:49;4.28;;;2.50;;
25127;SDS011;13107;51.304;6.866;2023-04-28T16:09:54;2.17;;;1.87;;
25127;SDS011;13107;51.304;6.866;2023-04-28T16:13:56;2.17;;;1.87;;
25127;SDS011;13107;51.304;6.866;2023-04-28T16:17:58;2.75;;;1.95;;
25127;SDS011;13107;51.304;6.866;2023-04-28T16:22:00;2.12;;;1.73;;
25127;SDS011;13107;51.304;6.866;2023-04-28T16:26:01;2.70;;;2.50;;
25127;SDS011;13107;51.304;6.866;2023-04-28T16:30:03;3.95;;;2.40;;
25127;SDS011;13107;51.304;6.866;2023-04-28T16:34:08;4.12;;;2.50;;
25127;SDS011;13107;51.304;6.866;2023-04-28T16:38:10;4.20;;;3.03;;
25127;SDS011;13107;51.304;6.866;2023-04-28T16:42:12;4.53;;;2.85;;
25127;SDS011;13107;51.304;6.866;2023-04-28T16:46:14;3.35;;;2.87;;
25127;SDS011;13107;51.304;6.866;2023-04-28T16:50:16;3.65;;;3.30;;
25127;SDS011;13107;51.304;6.866;2023-04-28T16:54:18;4.47;;;3.10;;
25127;SDS011;13107;51.304;6.866;2023-04-28T16:58:19;5.85;;;4.65;;
25127;SDS011;13107;51.304;6.866;2023-04-28T17:02:21;6.25;;;4.82;;
25127;SDS011;13107;51.304;6.866;2023-04-28T17:06:24;7.50;;;6.10;;
25127;SDS011;13107;51.304;6.866;2023-04-28T17:10:26;6.62;;;5.93;;
25127;SDS011;13107;51.304;6.866;2023-04-28T17:14:27;6.45;;;5.85;;
25127;SDS011;13107;51.304;6.866;2023-04-28T17:18:29;6.00;;;5.40;;
25127;SDS011;13107;51.304;6.866;2023-04-28T17:22:31;10.05;;;5.57;;
25127;SDS011;13107;51.304;6.866;2023-04-28T17:26:33;6.07;;;4.80;;
25127;SDS011;13107;51.304;6.866;2023-04-28T17:30:34;5.00;;;4.45;;
25127;SDS011;13107;51.304;6.866;2023-04-28T17:34:36;6.65;;;4.93;;
25127;SDS011;13107;51.304;6.866;2023-04-28T17:38:38;5.20;;;4.47;;
25127;SDS011;13107;51.304;6.866;2023-04-28T17:42:40;4.50;;;4.10;;
25127;SDS011;13107;51.304;6.866;2023-04-28T17:46:43;5.90;;;4.60;;
25127;SDS011;13107;51.304;6.866;2023-04-28T17:50:44;5.03;;;3.90;;
25127;SDS011;13107;51.304;6.866;2023-04-28T17:54:46;3.87;;;3.15;;
25127;SDS011;13107;51.304;6.866;2023-04-28T17:58:48;7.87;;;4.10;;
25127;SDS011;13107;51.304;6.866;2023-04-28T18:02:50;4.93;;;3.62;;
25127;SDS011;13107;51.304;6.866;2023-04-28T18:06:52;6.62;;;4.37;;
25127;SDS011;13107;51.304;6.866;2023-04-28T18:10:54;6.57;;;5.93;;
25127;SDS011;13107;51.304;6.866;2023-04-28T18:14:58;6.75;;;6.15;;
25127;SDS011;13107;51.304;6.866;2023-04-28T18:19:00;9.85;;;6.93;;
25127;SDS011;13107;51.304;6.866;2023-04-28T18:23:02;7.37;;;6.68;;
25127;SDS011;13107;51.304;6.866;2023-04-28T18:27:04;8.32;;;7.53;;
25127;SDS011;13107;51.304;6.866;2023-04-28T18:31:05;9.07;;;7.45;;
25127;SDS011;13107;51.304;6.866;2023-04-28T18:35:07;8.25;;;7.20;;
25127;SDS011;13107;51.304;6.866;2023-04-28T18:39:09;8.95;;;7.55;;
25127;SDS011;13107;51.304;6.866;2023-04-28T18:43:11;8.18;;;7.37;;
25127;SDS011;13107;51.304;6.866;2023-04-28T18:47:13;9.68;;;6.93;;
25127;SDS011;13107;51.304;6.866;2023-04-28T18:51:15;7.62;;;6.60;;
25127;SDS011;13107;51.304;6.866;2023-04-28T18:55:17;8.68;;;6.95;;
25127;SDS011;13107;51.304;6.866;2023-04-28T18:59:19;9.02;;;6.20;;
25127;SDS011;13107;51.304;6.866;2023-04-28T19:03:21;7.45;;;5.85;;
25127;SDS011;13107;51.304;6.866;2023-04-28T19:07:23;10.73;;;5.95;;
25127;SDS011;13107;51.304;6.866;2023-04-28T19:11:25;8.35;;;5.62;;
25127;SDS011;13107;51.304;6.866;2023-04-28T19:15:27;9.25;;;5.87;;
25127;SDS011;13107;51.304;6.866;2023-04-28T19:19:28;8.82;;;5.72;;
25127;SDS011;13107;51.304;6.866;2023-04-28T19:23:30;6.40;;;5.60;;
25127;SDS011;13107;51.304;6.866;2023-04-28T19:27:38;9.65;;;5.97;;
25127;SDS011;13107;51.304;6.866;2023-04-28T19:31:40;5.82;;;5.30;;
25127;SDS011;13107;51.304;6.866;2023-04-28T19:35:42;5.72;;;5.12;;
25127;SDS011;13107;51.304;6.866;2023-04-28T19:39:44;9.18;;;6.43;;
25127;SDS011;13107;51.304;6.866;2023-04-28T19:43:47;8.13;;;5.85;;
25127;SDS011;13107;51.304;6.866;2023-04-28T19:47:49;7.32;;;6.15;;
25127;SDS011;13107;51.304;6.866;2023-04-28T19:51:53;7.40;;;5.68;;
25127;SDS011;13107;51.304;6.866;2023-04-28T19:55:54;8.95;;;5.78;;
25127;SDS011;13107;51.304;6.866;2023-04-28T20:00:00;7.82;;;6.78;;
25127;SDS011;13107;51.304;6.866;2023-04-28T20:04:02;7.47;;;6.68;;
25127;SDS011;13107;51.304;6.866;2023-04-28T20:08:04;7.97;;;6.80;;
25127;SDS011;13107;51.304;6.866;2023-04-28T20:12:07;10.50;;;6.70;;
25127;SDS011;13107;51.304;6.866;2023-04-28T20:16:09;7.57;;;6.78;;
25127;SDS011;13107;51.304;6.866;2023-04-28T20:20:11;8.40;;;7.15;;
25127;SDS011;13107;51.304;6.866;2023-04-28T20:24:13;11.25;;;7.37;;
25127;SDS011;13107;51.304;6.866;2023-04-28T20:28:15;8.43;;;7.43;;
25127;SDS011;13107;51.304;6.866;2023-04-28T20:32:16;8.48;;;7.62;;
25127;SDS011;13107;51.304;6.866;2023-04-28T20:36:18;9.88;;;8.75;;
25127;SDS011;13107;51.304;6.866;2023-04-28T20:40:19;10.55;;;8.13;;
25127;SDS011;13107;51.304;6.866;2023-04-28T20:44:21;10.75;;;7.53;;
25127;SDS011;13107;51.304;6.866;2023-04-28T20:48:23;8.80;;;7.47;;
25127;SDS011;13107;51.304;6.866;2023-04-28T20:52:24;10.52;;;7.60;;
25127;SDS011;13107;51.304;6.866;2023-04-28T20:56:27;9.20;;;7.90;;
25127;SDS011;13107;51.304;6.866;2023-04-28T21:00:28;11.52;;;8.88;;
25127;SDS011;13107;51.304;6.866;2023-04-28T21:04:30;12.15;;;10.05;;
25127;SDS011;13107;51.304;6.866;2023-04-28T21:08:32;12.32;;;10.90;;
25127;SDS011;13107;51.304;6.866;2023-04-28T21:12:34;11.93;;;10.65;;
25127;SDS011;13107;51.304;6.866;2023-04-28T21:16:36;9.68;;;8.75;;
25127;SDS011;13107;51.304;6.866;2023-04-28T21:20:38;10.43;;;9.40;;
25127;SDS011;13107;51.304;6.866;2023-04-28T21:24:39;10.07;;;8.80;;
25127;SDS011;13107;51.304;6.866;2023-04-28T21:28:41;11.02;;;9.93;;
25127;SDS011;13107;51.304;6.866;2023-04-28T21:32:43;9.30;;;8.40;;
25127;SDS011;13107;51.304;6.866;2023-04-28T21:36:45;11.20;;;9.07;;
25127;SDS011;13107;51.304;6.866;2023-04-28T21:40:47;9.32;;;8.43;;
25127;SDS011;13107;51.304;6.866;2023-04-28T21:44:49;10.10;;;9.10;;
25127;SDS011;13107;51.304;6.866;2023-04-28T21:48:51;9.40;;;8.38;;
25127;SDS011;13107;51.304;6.866;2023-04-28T21:52:52;10.10;;;9.10;;
25127;SDS011;13107;51.304;6.866;2023-04-28T21:56:55;9.68;;;8.68;;
25127;SDS011;13107;51.304;6.866;2023-04-28T22:00:56;10.45;;;8.75;;
25127;SDS011;13107;51.304;6.866;2023-04-28T22:04:59;10.77;;;9.73;;
25127;SDS011;13107;51.304;6.866;2023-04-28T22:09:01;11.45;;;9.18;;
25127;SDS011;13107;51.304;6.866;2023-04-28T22:13:03;11.12;;;10.02;;
25127;SDS011;13107;51.304;6.866;2023-04-28T22:17:19;11.52;;;10.38;;
25127;SDS011;13107;51.304;6.866;2023-04-28T22:21:21;11.40;;;10.27;;
25127;SDS011;13107;51.304;6.866;2023-04-28T22:25:22;11.73;;;10.52;;
25127;SDS011;13107;51.304;6.866;2023-04-28T22:29:24;13.70;;;12.23;;
25127;SDS011;13107;51.304;6.866;2023-04-28T22:33:26;13.10;;;11.80;;
25127;SDS011;13107;51.304;6.866;2023-04-28T22:37:28;14.50;;;11.77;;
25127;SDS011;13107;51.304;6.866;2023-04-28T22:41:29;18.55;;;13.88;;
25127;SDS011;13107;51.304;6.866;2023-04-28T22:45:31;19.92;;;16.23;;
25127;SDS011;13107;51.304;6.866;2023-04-28T22:49:33;23.20;;;18.70;;
25127;SDS011;13107;51.304;6.866;2023-04-28T22:53:34;27.50;;;20.08;;
25127;SDS011;13107;51.304;6.866;2023-04-28T22:57:36;25.90;;;20.10;;
25127;SDS011;13107;51.304;6.866;2023-04-28T23:01:38;25.48;;;21.12;;
25127;SDS011;13107;51.304;6.866;2023-04-28T23:05:40;28.52;;;23.27;;
25127;SDS011;13107;51.304;6.866;2023-04-28T23:09:42;33.00;;;25.42;;
25127;SDS011;13107;51.304;6.866;2023-04-28T23:13:43;33.22;;;25.17;;
25127;SDS011;13107;51.304;6.866;2023-04-28T23:17:45;35.08;;;25.15;;
25127;SDS011;13107;51.304;6.866;2023-04-28T23:21:47;32.22;;;24.65;;
25127;SDS011;13107;51.304;6.866;2023-04-28T23:25:49;32.05;;;23.33;;
25127;SDS011;13107;51.304;6.866;2023-04-28T23:29:52;31.62;;;22.98;;
25127;SDS011;13107;51.304;6.866;2023-04-28T23:33:53;34.60;;;22.85;;
25127;SDS011;13107;51.304;6.866;2023-04-28T23:37:55;32.38;;;23.23;;
25127;SDS011;13107;51.304;6.866;2023-04-28T23:41:57;33.95;;;22.80;;
25127;SDS011;13107;51.304;6.866;2023-04-28T23:45:58;33.05;;;23.00;;
25127;SDS011;13107;51.304;6.866;2023-04-28T23:50:00;33.17;;;23.20;;
25127;SDS011;13107;51.304;6.866;2023-04-28T23:54:02;34.42;;;22.70;;
25127;SDS011;13107;51.304;6.866;2023-04-28T23:58:03;31.25;;;21.80;;
